createdAt,value
2022-09-28T00:00:17.860Z,101317.09
2022-09-28T00:02:51.046Z,101318.83
2022-09-28T00:05:05.420Z,101321.17
2022-09-28T00:07:18.756Z,101325.23
2022-09-28T00:09:32.130Z,101317.55
2022-09-28T00:11:47.421Z,101314.08
2022-09-28T00:14:04.610Z,101308.65
2022-09-28T00:16:20.922Z,101309.15
2022-09-28T00:18:34.346Z,101308.92
2022-09-28T00:20:47.786Z,101306.41
2022-09-28T00:23:01.062Z,101307.20
2022-09-28T00:25:15.412Z,101303.73
2022-09-28T00:27:28.723Z,101299.94
2022-09-28T00:29:43.524Z,101296.23
2022-09-28T00:32:01.066Z,101294.71
2022-09-28T00:34:14.457Z,101293.61
2022-09-28T00:36:29.567Z,101295.10
2022-09-28T00:38:43.106Z,101294.52
2022-09-28T00:40:57.142Z,101291.55
2022-09-28T00:43:24.078Z,101299.30
2022-09-28T00:45:37.495Z,101306.13
2022-09-28T00:47:54.504Z,101308.88
2022-09-28T00:50:12.320Z,101308.05
2022-09-28T00:52:29.600Z,101309.06
2022-09-28T00:54:43.349Z,101307.12
2022-09-28T00:56:57.037Z,101308.00
2022-09-28T00:59:12.426Z,101303.28
2022-09-28T01:01:25.875Z,101302.70
2022-09-28T01:03:42.582Z,101301.38
2022-09-28T01:05:58.809Z,101302.08
2022-09-28T01:08:14.608Z,101302.52
2022-09-28T01:10:29.176Z,101307.38
2022-09-28T01:12:42.461Z,101316.11
2022-09-28T01:14:57.010Z,101319.63
2022-09-28T01:17:17.304Z,101320.73
2022-09-28T01:20:07.259Z,101326.91
2022-09-28T01:22:39.770Z,101326.82
2022-09-28T01:24:59.709Z,101326.62
2022-09-28T01:27:19.380Z,101327.21
2022-09-28T01:29:45.782Z,101323.84
2022-09-28T01:32:05.326Z,101325.75
2022-09-28T01:34:23.927Z,101324.27
2022-09-28T01:36:43.608Z,101326.92
2022-09-28T01:39:03.157Z,101329.52
2022-09-28T01:41:18.739Z,101330.11
2022-09-28T01:43:35.382Z,101329.23
2022-09-28T01:45:52.601Z,101332.23
2022-09-28T01:48:10.554Z,101330.02
2022-09-28T01:50:28.975Z,101325.64
2022-09-28T01:52:49.204Z,101320.09
2022-09-28T01:55:07.121Z,101322.01
2022-09-28T01:57:25.125Z,101316.31
2022-09-28T01:59:42.194Z,101319.82
2022-09-28T02:01:58.896Z,101323.17
2022-09-28T02:04:18.438Z,101322.02
2022-09-28T02:06:43.590Z,101319.28
2022-09-28T02:09:01.570Z,101316.73
2022-09-28T02:11:24.308Z,101318.96
2022-09-28T02:13:41.869Z,101323.23
2022-09-28T02:16:01.286Z,101317.89
2022-09-28T02:18:15.862Z,101311.75
2022-09-28T02:20:30.247Z,101311.01
2022-09-28T02:22:49.226Z,101319.65
2022-09-28T02:25:06.010Z,101314.55
2022-09-28T02:27:23.247Z,101314.14
2022-09-28T02:29:36.430Z,101315.07
2022-09-28T02:31:50.162Z,101317.29
2022-09-28T02:34:03.726Z,101319.14
2022-09-28T02:36:18.314Z,101319.20
2022-09-28T02:38:31.758Z,101314.66
2022-09-28T02:40:47.588Z,101319.98
2022-09-28T02:43:12.337Z,101326.21
2022-09-28T02:45:37.657Z,101325.55
2022-09-28T02:48:06.895Z,101327.64
2022-09-28T02:50:28.265Z,101326.10
2022-09-28T02:53:00.046Z,101326.59
2022-09-28T02:55:29.476Z,101331.17
2022-09-28T02:58:04.777Z,101332.88
2022-09-28T03:00:22.462Z,101333.14
2022-09-28T03:02:43.288Z,101336.61
2022-09-28T03:05:08.101Z,101341.14
2022-09-28T03:07:27.067Z,101345.69
2022-09-28T03:09:46.032Z,101344.66
2022-09-28T03:12:02.589Z,101348.27
2022-09-28T03:14:16.870Z,101349.41
2022-09-28T03:16:39.336Z,101351.00
2022-09-28T03:18:53.554Z,101350.55
2022-09-28T03:21:07.343Z,101346.10
2022-09-28T03:23:24.736Z,101340.09
2022-09-28T03:25:39.434Z,101341.69
2022-09-28T03:27:52.715Z,101341.02
2022-09-28T03:30:06.359Z,101341.97
2022-09-28T03:32:20.250Z,101340.08
2022-09-28T03:34:33.639Z,101338.27
2022-09-28T03:36:46.996Z,101339.54
2022-09-28T03:39:00.773Z,101344.86
2022-09-28T03:41:14.175Z,101343.61
2022-09-28T03:43:29.451Z,101341.63
2022-09-28T03:45:43.390Z,101340.41
2022-09-28T03:47:56.720Z,101347.52
2022-09-28T03:50:10.659Z,101345.74
2022-09-28T03:52:24.320Z,101349.69
2022-09-28T03:54:37.721Z,101356.36
2022-09-28T03:56:51.443Z,101366.19
2022-09-28T03:59:05.883Z,101364.05
2022-09-28T04:01:19.826Z,101365.88
2022-09-28T04:03:33.407Z,101368.68
2022-09-28T04:05:54.278Z,101367.70
2022-09-28T04:08:09.051Z,101367.83
2022-09-28T04:10:22.651Z,101369.39
2022-09-28T04:12:36.082Z,101368.96
2022-09-28T04:14:50.507Z,101375.48
2022-09-28T04:17:04.366Z,101376.50
2022-09-28T04:19:18.511Z,101382.10
2022-09-28T04:21:51.802Z,101386.44
2022-09-28T04:24:05.274Z,101388.17
2022-09-28T04:26:21.785Z,101374.33
2022-09-28T04:28:51.588Z,101366.79
2022-09-28T04:31:05.188Z,101349.10
2022-09-28T04:33:18.612Z,101351.55
2022-09-28T04:35:31.847Z,101359.23
2022-09-28T04:37:45.017Z,101356.86
2022-09-28T04:39:58.381Z,101352.55
2022-09-28T04:42:13.100Z,101349.56
2022-09-28T04:44:26.373Z,101344.73
2022-09-28T04:46:44.546Z,101344.20
2022-09-28T04:49:24.079Z,101349.54
2022-09-28T04:51:43.506Z,101347.39
2022-09-28T04:53:58.758Z,101341.30
2022-09-28T04:56:14.359Z,101340.31
2022-09-28T04:58:27.609Z,101345.58
2022-09-28T05:00:41.481Z,101351.03
2022-09-28T05:03:08.036Z,101344.67
2022-09-28T05:05:52.277Z,101343.89
2022-09-28T05:08:24.200Z,101339.99
2022-09-28T05:10:38.167Z,101335.59
2022-09-28T05:12:51.453Z,101333.51
2022-09-28T05:15:04.715Z,101350.58
2022-09-28T05:17:18.069Z,101356.62
2022-09-28T05:19:54.349Z,101355.58
2022-09-28T05:22:12.499Z,101352.59
2022-09-28T05:24:28.119Z,101337.08
2022-09-28T05:26:41.508Z,101329.16
2022-09-28T05:28:56.115Z,101322.56
2022-09-28T05:31:38.701Z,101329.41
2022-09-28T05:34:03.687Z,101328.34
2022-09-28T05:36:17.525Z,101329.20
2022-09-28T05:38:31.016Z,101331.11
2022-09-28T05:40:44.227Z,101334.49
2022-09-28T05:43:01.793Z,101336.18
2022-09-28T05:45:16.450Z,101331.19
2022-09-28T05:47:31.250Z,101339.78
2022-09-28T05:49:44.782Z,101343.63
2022-09-28T05:51:58.422Z,101337.30
2022-09-28T05:54:12.117Z,101328.55
2022-09-28T05:56:29.424Z,101327.85
2022-09-28T05:58:42.812Z,101318.68
2022-09-28T06:01:00.896Z,101323.34
2022-09-28T06:03:17.859Z,101319.33
2022-09-28T06:05:31.376Z,101312.73
2022-09-28T06:07:44.662Z,101305.68
2022-09-28T06:09:58.311Z,101306.66
2022-09-28T06:12:25.576Z,101302.43
2022-09-28T06:14:45.509Z,101300.67
2022-09-28T06:16:59.474Z,101308.44
2022-09-28T06:19:13.993Z,101306.94
2022-09-28T06:21:50.884Z,101302.66
2022-09-28T06:24:04.237Z,101308.84
2022-09-28T06:26:17.626Z,101302.77
2022-09-28T06:28:31.567Z,101294.79
2022-09-28T06:30:45.600Z,101293.50
2022-09-28T06:33:03.840Z,101304.67
2022-09-28T06:35:18.166Z,101306.88
2022-09-28T06:37:31.480Z,101306.63
2022-09-28T06:39:44.826Z,101312.37
2022-09-28T06:41:58.009Z,101315.15
2022-09-28T06:44:19.002Z,101322.40
2022-09-28T06:46:50.905Z,101323.46
2022-09-28T06:49:36.593Z,101328.50
2022-09-28T06:52:05.063Z,101326.20
2022-09-28T06:54:41.511Z,101326.95
2022-09-28T06:57:08.074Z,101330.98
2022-09-28T06:59:21.817Z,101333.90
2022-09-28T07:01:35.557Z,101336.09
2022-09-28T07:04:07.567Z,101334.89
2022-09-28T07:06:58.727Z,101333.63
2022-09-28T07:09:37.302Z,101332.48
2022-09-28T07:12:14.811Z,101339.48
2022-09-28T07:14:47.014Z,101336.94
2022-09-28T07:17:13.790Z,101322.96
2022-09-28T07:19:28.916Z,101312.54
2022-09-28T07:21:42.180Z,101318.42
2022-09-28T07:23:55.644Z,101314.67
2022-09-28T07:26:12.067Z,101306.77
2022-09-28T07:28:44.204Z,101304.32
2022-09-28T07:31:16.890Z,101301.29
2022-09-28T07:33:48.701Z,101298.44
2022-09-28T07:36:22.115Z,101284.27
2022-09-28T07:38:36.912Z,101281.66
2022-09-28T07:41:06.769Z,101272.91
2022-09-28T07:43:21.941Z,101257.95
2022-09-28T07:45:39.435Z,101258.58
2022-09-28T07:47:52.990Z,101257.74
2022-09-28T07:50:24.632Z,101254.81
2022-09-28T07:52:46.493Z,101250.62
2022-09-28T07:55:12.149Z,101257.23
2022-09-28T07:57:49.338Z,101254.80
2022-09-28T08:00:13.219Z,101264.81
2022-09-28T08:02:33.574Z,101266.88
2022-09-28T08:04:46.827Z,101264.33
2022-09-28T08:07:01.004Z,101267.79
2022-09-28T08:09:14.972Z,101279.11
2022-09-28T08:11:46.923Z,101279.34
2022-09-28T08:14:20.711Z,101281.84
2022-09-28T08:16:59.737Z,101283.76
2022-09-28T08:19:54.970Z,101283.05
2022-09-28T08:22:08.154Z,101289.95
2022-09-28T08:24:22.140Z,101288.31
2022-09-28T08:26:36.061Z,101286.66
2022-09-28T08:28:49.711Z,101275.98
2022-09-28T08:31:25.473Z,101259.17
2022-09-28T08:33:56.949Z,101258.77
2022-09-28T08:36:48.665Z,101266.77
2022-09-28T08:39:24.861Z,101266.38
2022-09-28T08:42:31.563Z,101257.63
2022-09-28T08:45:11.355Z,101253.64
2022-09-28T08:47:46.220Z,101255.45
2022-09-28T08:50:27.424Z,101260.00
2022-09-28T08:52:50.100Z,101261.73
2022-09-28T08:55:32.362Z,101266.98
2022-09-28T08:57:51.769Z,101261.63
2022-09-28T09:00:11.560Z,101258.85
2022-09-28T09:02:30.938Z,101256.98
2022-09-28T09:04:57.171Z,101248.94
2022-09-28T09:07:39.446Z,101244.80
2022-09-28T09:10:06.263Z,101251.80
2022-09-28T09:12:24.846Z,101249.91
2022-09-28T09:15:00.318Z,101245.26
2022-09-28T09:17:23.992Z,101246.06
2022-09-28T09:20:09.844Z,101247.90
2022-09-28T09:22:44.909Z,101248.84
2022-09-28T09:25:06.853Z,101255.52
2022-09-28T09:27:45.490Z,101258.66
2022-09-28T09:30:09.493Z,101272.90
2022-09-28T09:32:37.511Z,101271.33
2022-09-28T09:35:10.099Z,101270.27
2022-09-28T09:38:02.989Z,101285.39
2022-09-28T09:40:52.803Z,101287.91
2022-09-28T09:43:46.057Z,101285.25
2022-09-28T09:46:40.669Z,101278.55
2022-09-28T09:49:23.451Z,101271.60
2022-09-28T09:51:44.007Z,101267.86
2022-09-28T09:54:02.965Z,101273.16
2022-09-28T09:56:21.579Z,101275.83
2022-09-28T09:58:57.299Z,101276.88
2022-09-28T10:01:21.044Z,101269.60
2022-09-28T10:04:08.728Z,101266.30
2022-09-28T10:06:29.664Z,101263.43
2022-09-28T10:08:48.071Z,101265.30
2022-09-28T10:11:13.934Z,101264.41
2022-09-28T10:13:28.356Z,101266.52
2022-09-28T10:15:44.087Z,101271.91
2022-09-28T10:18:10.943Z,101272.73
2022-09-28T10:20:44.752Z,101280.98
2022-09-28T10:23:08.364Z,101290.36
2022-09-28T10:25:22.512Z,101289.48
2022-09-28T10:27:39.526Z,101282.79
2022-09-28T10:29:57.863Z,101266.34
2022-09-28T10:32:25.103Z,101254.66
2022-09-28T10:34:41.699Z,101252.17
2022-09-28T10:37:02.184Z,101246.78
2022-09-28T10:39:43.666Z,101255.75
2022-09-28T10:41:59.884Z,101255.36
2022-09-28T10:44:21.954Z,101255.58
2022-09-28T10:47:11.183Z,101262.37
2022-09-28T10:49:25.777Z,101261.80
2022-09-28T10:51:50.892Z,101258.38
2022-09-28T10:54:09.089Z,101250.50
2022-09-28T10:56:38.685Z,101239.39
2022-09-28T10:58:54.227Z,101224.90
2022-09-28T11:01:17.370Z,101225.95
2022-09-28T11:03:32.443Z,101214.03
2022-09-28T11:06:00.511Z,101208.13
2022-09-28T11:08:24.893Z,101189.02
2022-09-28T11:10:38.653Z,101188.42
2022-09-28T11:13:00.292Z,101187.86
2022-09-28T11:15:20.868Z,101205.60
2022-09-28T11:17:39.888Z,101223.18
2022-09-28T11:19:53.883Z,101237.84
2022-09-28T11:22:23.448Z,101239.33
2022-09-28T11:24:37.246Z,101249.52
2022-09-28T11:26:54.617Z,101248.27
2022-09-28T11:29:10.542Z,101238.38
2022-09-28T11:31:35.659Z,101225.46
2022-09-28T11:33:54.801Z,101216.62
2022-09-28T11:36:38.123Z,101205.39
2022-09-28T11:39:01.163Z,101199.85
2022-09-28T11:41:53.542Z,101208.97
2022-09-28T11:44:31.058Z,101217.18
2022-09-28T11:47:12.068Z,101221.00
2022-09-28T11:49:36.843Z,101228.17
2022-09-28T11:51:53.087Z,101217.73
2022-09-28T11:54:15.620Z,101227.73
2022-09-28T11:56:39.473Z,101225.29
2022-09-28T11:58:56.319Z,101227.02
2022-09-28T12:01:24.755Z,101225.21
2022-09-28T12:04:01.270Z,101229.39
2022-09-28T12:06:19.733Z,101223.39
2022-09-28T12:08:36.816Z,101225.23
2022-09-28T12:10:56.679Z,101226.34
2022-09-28T12:13:30.718Z,101221.17
2022-09-28T12:18:30.371Z,101209.87
2022-09-28T12:20:48.675Z,101206.00
2022-09-28T12:23:11.750Z,101203.27
2022-09-28T12:25:27.090Z,101211.96
2022-09-28T12:27:45.558Z,101211.41
2022-09-28T12:30:03.863Z,101215.54
2022-09-28T12:32:27.807Z,101208.58
2022-09-28T12:34:41.054Z,101215.79
2022-09-28T12:37:04.512Z,101213.08
2022-09-28T12:39:56.654Z,101207.92
2022-09-28T12:42:30.200Z,101212.83
2022-09-28T12:45:21.210Z,101213.25
2022-09-28T12:47:57.463Z,101224.10
2022-09-28T12:50:40.270Z,101223.77
2022-09-28T12:53:10.526Z,101236.35
2022-09-28T12:55:51.174Z,101236.38
2022-09-28T12:58:10.222Z,101240.18
2022-09-28T13:00:26.321Z,101240.48
2022-09-28T13:02:57.295Z,101242.91
2022-09-28T13:05:33.559Z,101235.44
2022-09-28T13:07:55.184Z,101232.51
2022-09-28T13:10:21.609Z,101236.41
2022-09-28T13:12:42.835Z,101238.16
2022-09-28T13:15:11.713Z,101245.08
2022-09-28T13:17:37.554Z,101248.25
2022-09-28T13:19:57.060Z,101242.17
2022-09-28T13:22:25.628Z,101247.18
2022-09-28T13:24:45.052Z,101251.17
2022-09-28T13:27:00.635Z,101253.23
2022-09-28T13:29:18.145Z,101257.39
2022-09-28T13:31:36.061Z,101256.48
2022-09-28T13:33:52.716Z,101263.00
2022-09-28T13:36:06.286Z,101267.13
2022-09-28T13:38:57.328Z,101272.92
2022-09-28T13:41:23.720Z,101275.92
2022-09-28T13:43:56.412Z,101273.33
2022-09-28T13:46:24.065Z,101271.40
2022-09-28T13:48:51.690Z,101270.10
2022-09-28T13:51:32.135Z,101273.14
2022-09-28T13:54:01.072Z,101280.60
2022-09-28T13:56:29.558Z,101274.27
2022-09-28T13:58:50.680Z,101272.44
2022-09-28T14:01:10.465Z,101274.22
2022-09-28T14:03:45.887Z,101281.35
2022-09-28T14:06:24.766Z,101275.80
2022-09-28T14:08:47.251Z,101287.36
2022-09-28T14:11:01.515Z,101289.73
2022-09-28T14:13:15.415Z,101290.28
2022-09-28T14:15:46.593Z,101291.91
2022-09-28T14:18:16.040Z,101297.30
2022-09-28T14:20:34.531Z,101294.63
2022-09-28T14:23:02.077Z,101297.89
2022-09-28T14:25:21.017Z,101301.60
2022-09-28T14:28:03.496Z,101304.46
2022-09-28T14:30:26.944Z,101303.98
2022-09-28T14:32:41.798Z,101303.84
2022-09-28T14:35:03.524Z,101301.98
2022-09-28T14:37:45.735Z,101300.58
2022-09-28T14:40:16.433Z,101303.94
2022-09-28T14:42:30.337Z,101309.98
2022-09-28T14:45:37.108Z,101311.02
2022-09-28T14:48:07.409Z,101315.11
2022-09-28T14:50:30.514Z,101315.08
2022-09-28T14:52:51.234Z,101313.17
2022-09-28T14:55:04.641Z,101315.34
2022-09-28T14:57:23.693Z,101315.71
2022-09-28T14:59:44.610Z,101314.27
2022-09-28T15:02:02.549Z,101313.64
2022-09-28T15:04:18.096Z,101312.17
2022-09-28T15:06:47.360Z,101312.66
2022-09-28T15:09:00.704Z,101308.79
2022-09-28T15:11:19.334Z,101307.34
2022-09-28T15:13:33.742Z,101313.59
2022-09-28T15:15:51.740Z,101313.77
2022-09-28T15:18:34.519Z,101316.52
2022-09-28T15:20:50.017Z,101320.64
2022-09-28T15:23:03.930Z,101318.08
2022-09-28T15:25:23.703Z,101319.33
2022-09-28T15:27:43.321Z,101324.83
2022-09-28T15:30:20.049Z,101325.52
2022-09-28T15:32:33.638Z,101324.63
2022-09-28T15:34:55.959Z,101329.05
2022-09-28T15:37:12.617Z,101330.55
2022-09-28T15:39:31.080Z,101330.44
2022-09-28T15:41:45.928Z,101339.02
2022-09-28T15:44:35.458Z,101341.16
2022-09-28T15:46:53.161Z,101344.89
2022-09-28T15:49:07.272Z,101342.05
2022-09-28T15:51:21.314Z,101342.29
2022-09-28T15:53:35.323Z,101345.00
2022-09-28T15:55:53.386Z,101344.74
2022-09-28T15:58:22.076Z,101348.82
2022-09-28T16:00:36.169Z,101353.87
2022-09-28T16:03:04.913Z,101360.97
2022-09-28T16:05:44.286Z,101364.91
2022-09-28T16:08:05.246Z,101371.09
2022-09-28T16:10:38.798Z,101373.77
2022-09-28T16:12:56.626Z,101376.31
2022-09-28T16:15:16.116Z,101381.73
2022-09-28T16:17:35.525Z,101388.63
2022-09-28T16:19:50.691Z,101389.21
2022-09-28T16:22:06.531Z,101388.98
2022-09-28T16:24:31.771Z,101392.73
2022-09-28T16:26:45.264Z,101393.97
2022-09-28T16:29:01.313Z,101397.02
2022-09-28T16:31:33.917Z,101394.63
2022-09-28T16:33:55.528Z,101396.84
2022-09-28T16:36:14.625Z,101397.92
2022-09-28T16:38:28.113Z,101398.44
2022-09-28T16:40:47.511Z,101402.24
2022-09-28T16:43:04.501Z,101406.98
2022-09-28T16:45:24.967Z,101410.42
2022-09-28T16:47:38.604Z,101407.95
2022-09-28T16:49:52.827Z,101402.02
2022-09-28T16:52:06.083Z,101401.50
2022-09-28T16:54:38.187Z,101404.16
2022-09-28T16:56:51.494Z,101405.59
2022-09-28T16:59:04.916Z,101403.02
2022-09-28T17:01:19.037Z,101399.92
2022-09-28T17:03:32.909Z,101397.95
2022-09-28T17:05:46.577Z,101401.81
2022-09-28T17:08:07.113Z,101401.64
2022-09-28T17:10:27.612Z,101398.88
2022-09-28T17:12:41.486Z,101397.98
2022-09-28T17:14:55.206Z,101399.67
2022-09-28T17:17:12.684Z,101391.40
2022-09-28T17:19:32.078Z,101391.48
2022-09-28T17:21:45.699Z,101388.61
2022-09-28T17:23:59.041Z,101384.83
2022-09-28T17:26:18.833Z,101383.23
2022-09-28T17:28:34.921Z,101382.11
2022-09-28T17:30:48.230Z,101380.46
2022-09-28T17:33:02.879Z,101383.46
2022-09-28T17:35:25.078Z,101384.59
2022-09-28T17:37:38.889Z,101381.75
2022-09-28T17:39:52.155Z,101383.90
2022-09-28T17:42:05.436Z,101379.27
2022-09-28T17:44:19.035Z,101380.23
2022-09-28T17:46:37.247Z,101372.80
2022-09-28T17:48:50.431Z,101373.39
2022-09-28T17:51:03.750Z,101366.15
2022-09-28T17:53:17.486Z,101368.34
2022-09-28T17:55:33.027Z,101365.86
2022-09-28T17:57:46.228Z,101362.86
2022-09-28T17:59:59.542Z,101362.61
2022-09-28T18:02:15.023Z,101356.16
2022-09-28T18:04:50.922Z,101353.88
2022-09-28T18:07:01.485Z,101352.71
2022-09-28T18:09:17.380Z,101349.70
2022-09-28T18:11:30.892Z,101347.41
2022-09-28T18:13:44.791Z,101354.27
2022-09-28T18:15:59.401Z,101354.38
2022-09-28T18:18:14.143Z,101355.31
2022-09-28T18:20:27.379Z,101354.16
2022-09-28T18:22:40.527Z,101357.02
2022-09-28T18:24:53.757Z,101355.64
2022-09-28T18:27:07.024Z,101363.78
2022-09-28T18:29:20.593Z,101365.33
2022-09-28T18:31:33.865Z,101367.78
2022-09-28T18:33:47.184Z,101369.10
2022-09-28T18:36:00.625Z,101372.83
2022-09-28T18:38:14.272Z,101372.62
2022-09-28T18:40:27.555Z,101368.98
2022-09-28T18:42:41.105Z,101374.13
2022-09-28T18:44:54.319Z,101372.17
2022-09-28T18:47:07.417Z,101365.21
2022-09-28T18:49:21.024Z,101359.39
2022-09-28T18:51:34.279Z,101360.23
2022-09-28T18:53:47.643Z,101362.44
2022-09-28T18:56:00.934Z,101362.77
2022-09-28T18:58:15.259Z,101359.92
2022-09-28T19:00:28.503Z,101365.40
2022-09-28T19:02:42.105Z,101362.39
2022-09-28T19:04:55.859Z,101362.52
2022-09-28T19:07:09.341Z,101357.09
2022-09-28T19:09:25.796Z,101363.03
2022-09-28T19:11:39.045Z,101362.52
2022-09-28T19:13:52.226Z,101362.48
2022-09-28T19:16:10.058Z,101360.54
2022-09-28T19:18:23.347Z,101362.48
2022-09-28T19:20:38.141Z,101370.61
2022-09-28T19:22:52.247Z,101373.70
2022-09-28T19:25:05.521Z,101375.11
2022-09-28T19:27:18.805Z,101382.46
2022-09-28T19:29:32.289Z,101386.60
2022-09-28T19:31:46.474Z,101385.48
2022-09-28T19:34:00.334Z,101377.45
2022-09-28T19:36:16.681Z,101375.13
2022-09-28T19:38:31.059Z,101373.93
2022-09-28T19:40:45.440Z,101367.21
2022-09-28T19:42:58.708Z,101368.90
2022-09-28T19:45:13.585Z,101371.29
2022-09-28T19:47:26.878Z,101379.30
2022-09-28T19:49:41.224Z,101378.11
2022-09-28T19:54:35.682Z,101380.06
2022-09-28T19:56:49.992Z,101377.21
2022-09-28T19:59:03.655Z,101374.20
2022-09-28T20:01:17.032Z,101371.27
2022-09-28T20:03:30.329Z,101371.73
2022-09-28T20:05:44.117Z,101377.45
2022-09-28T20:07:57.524Z,101377.52
2022-09-28T20:10:13.167Z,101373.08
2022-09-28T20:12:26.408Z,101373.13
2022-09-28T20:14:40.425Z,101370.54
2022-09-28T20:16:54.060Z,101376.13
2022-09-28T20:19:08.684Z,101380.23
2022-09-28T20:21:26.453Z,101373.30
2022-09-28T20:23:40.183Z,101374.02
2022-09-28T20:25:58.339Z,101375.36
2022-09-28T20:28:11.956Z,101373.63
2022-09-28T20:30:25.552Z,101370.58
2022-09-28T20:32:39.985Z,101371.86
2022-09-28T20:34:53.382Z,101374.19
2022-09-28T20:37:06.637Z,101370.96
2022-09-28T20:39:20.145Z,101374.06
2022-09-28T20:41:35.961Z,101367.89
2022-09-28T20:43:49.792Z,101371.00
2022-09-28T20:46:04.238Z,101368.19
2022-09-28T20:48:17.561Z,101369.69
2022-09-28T20:50:30.930Z,101369.38
2022-09-28T20:52:44.163Z,101376.86
2022-09-28T20:54:57.408Z,101374.38
2022-09-28T20:57:18.607Z,101379.24
2022-09-28T20:59:32.428Z,101375.45
2022-09-28T21:01:46.080Z,101382.29
2022-09-28T21:04:01.706Z,101385.96
2022-09-28T21:06:15.467Z,101390.11
2022-09-28T21:08:29.532Z,101388.51
2022-09-28T21:10:46.151Z,101387.09
2022-09-28T21:12:59.382Z,101382.58
2022-09-28T21:15:14.421Z,101387.13
2022-09-28T21:17:27.571Z,101384.85
2022-09-28T21:19:41.047Z,101388.36
2022-09-28T21:21:54.734Z,101387.89
2022-09-28T21:24:08.417Z,101385.00
2022-09-28T21:26:27.493Z,101384.88
2022-09-28T21:28:41.400Z,101383.57
2022-09-28T21:30:57.692Z,101384.73
2022-09-28T21:33:11.363Z,101387.36
2022-09-28T21:35:24.762Z,101391.64
2022-09-28T21:37:37.911Z,101391.89
2022-09-28T21:39:51.069Z,101396.64
2022-09-28T21:42:04.245Z,101396.77
2022-09-28T21:44:17.888Z,101391.78
2022-09-28T21:46:35.293Z,101394.25
2022-09-28T21:48:49.260Z,101394.22
2022-09-28T21:51:04.413Z,101394.73
2022-09-28T21:53:17.633Z,101395.70
2022-09-28T21:55:31.119Z,101396.98
2022-09-28T21:57:44.369Z,101397.60
2022-09-28T21:59:57.492Z,101399.70
2022-09-28T22:02:11.545Z,101402.59
2022-09-28T22:04:24.847Z,101397.48
2022-09-28T22:06:38.546Z,101401.15
2022-09-28T22:08:53.289Z,101396.17
2022-09-28T22:11:08.454Z,101394.81
2022-09-28T22:13:21.582Z,101389.42
2022-09-28T22:15:35.036Z,101389.86
2022-09-28T22:17:48.426Z,101388.80
2022-09-28T22:20:01.974Z,101390.09
2022-09-28T22:22:15.249Z,101390.55
2022-09-28T22:24:28.789Z,101390.14
2022-09-28T22:26:42.760Z,101392.23
2022-09-28T22:28:58.330Z,101386.29
2022-09-28T22:31:11.778Z,101387.01
2022-09-28T22:33:25.160Z,101385.13
2022-09-28T22:35:38.646Z,101381.91
2022-09-28T22:37:52.056Z,101382.91
2022-09-28T22:40:05.701Z,101387.09
2022-09-28T22:42:19.286Z,101381.23
2022-09-28T22:44:32.584Z,101385.77
2022-09-28T22:46:45.937Z,101383.61
2022-09-28T22:49:00.880Z,101386.69
2022-09-28T22:51:14.345Z,101381.55
2022-09-28T22:53:27.778Z,101390.13
2022-09-28T22:55:41.396Z,101381.77
2022-09-28T22:57:54.572Z,101381.61
2022-09-28T23:00:08.451Z,101384.13
2022-09-28T23:02:21.559Z,101383.63
2022-09-28T23:04:34.724Z,101382.86
2022-09-28T23:06:47.903Z,101385.67
2022-09-28T23:09:01.073Z,101383.02
2022-09-28T23:11:15.229Z,101379.19
2022-09-28T23:13:28.576Z,101381.25
2022-09-28T23:15:41.965Z,101379.71
2022-09-28T23:17:56.757Z,101383.09
2022-09-28T23:20:12.026Z,101377.09
2022-09-28T23:22:25.243Z,101376.73
2022-09-28T23:24:38.789Z,101380.83
2022-09-28T23:26:52.065Z,101379.35
2022-09-28T23:29:05.510Z,101377.57
2022-09-28T23:31:21.826Z,101369.42
2022-09-28T23:33:35.540Z,101373.73
2022-09-28T23:35:49.485Z,101378.11
2022-09-28T23:38:02.721Z,101371.40
2022-09-28T23:40:17.586Z,101369.91
2022-09-28T23:42:31.372Z,101370.36
2022-09-28T23:44:44.587Z,101364.15
2022-09-28T23:46:58.235Z,101368.27
2022-09-28T23:49:11.667Z,101363.64
2022-09-28T23:51:25.045Z,101370.86
2022-09-28T23:53:38.479Z,101379.00
2022-09-28T23:55:51.788Z,101385.42
2022-09-28T23:58:05.190Z,101389.74
